createdAt,value
2019-04-23T00:01:28.469Z,7.00
2019-04-23T00:03:52.014Z,3.80
2019-04-23T00:09:12.571Z,4.07
2019-04-23T00:11:25.887Z,4.53
2019-04-23T00:14:35.720Z,3.50
2019-04-23T00:16:26.321Z,3.10
2019-04-23T00:19:03.211Z,3.17
2019-04-23T00:21:40.494Z,3.10
2019-04-23T00:24:17.467Z,3.23
2019-04-23T00:26:47.613Z,3.73
2019-04-23T00:29:26.080Z,5.00
2019-04-23T00:31:44.381Z,3.70
2019-04-23T00:34:09.435Z,3.60
2019-04-23T00:39:13.836Z,3.93
2019-04-23T00:41:42.532Z,7.00
2019-04-23T00:44:15.051Z,3.97
2019-04-23T00:46:43.457Z,4.17
2019-04-23T00:49:15.616Z,4.70
2019-04-23T00:51:47.737Z,3.57
2019-04-23T00:54:12.188Z,6.13
2019-04-23T00:59:11.893Z,3.30
2019-04-23T01:04:12.213Z,5.20
2019-04-23T01:06:41.502Z,6.93
2019-04-23T01:09:10.453Z,3.60
2019-04-23T01:11:43.521Z,4.57
2019-04-23T01:14:18.041Z,4.13
2019-04-23T01:16:37.422Z,4.23
2019-04-23T01:19:18.878Z,3.70
2019-04-23T01:21:26.443Z,3.67
2019-04-23T01:24:05.711Z,3.83
2019-04-23T01:27:24.155Z,4.50
2019-04-23T01:29:48.695Z,4.07
2019-04-23T01:32:08.633Z,4.37
2019-04-23T01:34:49.565Z,6.20
2019-04-23T01:37:13.098Z,3.97
2019-04-23T01:39:49.964Z,4.20
2019-04-23T01:42:22.807Z,4.77
2019-04-23T01:44:42.430Z,4.07
2019-04-23T01:47:18.685Z,5.37
2019-04-23T01:49:50.477Z,5.73
2019-04-23T01:52:14.532Z,5.37
2019-04-23T01:54:45.245Z,4.17
2019-04-23T01:57:18.125Z,6.10
2019-04-23T01:59:45.888Z,4.77
2019-04-23T02:02:15.539Z,4.30
2019-04-23T02:04:47.790Z,5.37
2019-04-23T02:07:11.253Z,4.20
2019-04-23T02:09:51.600Z,4.40
2019-04-23T02:12:11.233Z,4.73
2019-04-23T02:14:43.226Z,4.20
2019-04-23T02:17:16.027Z,4.40
2019-04-23T02:19:46.722Z,4.33
2019-04-23T02:22:13.245Z,4.40
2019-04-23T02:24:47.932Z,5.43
2019-04-23T02:27:26.466Z,5.70
2019-04-23T02:29:51.352Z,5.93
2019-04-23T02:32:19.690Z,4.87
2019-04-23T02:34:57.911Z,5.27
2019-04-23T02:37:36.351Z,4.47
2019-04-23T02:42:40.116Z,6.53
2019-04-23T02:44:45.228Z,5.47
2019-04-23T02:49:54.970Z,5.00
2019-04-23T02:52:21.794Z,5.83
2019-04-23T02:57:21.525Z,5.70
2019-04-23T03:00:07.984Z,5.90
2019-04-23T03:07:32.986Z,5.27
2019-04-23T03:09:51.307Z,5.00
2019-04-23T03:12:28.781Z,5.60
2019-04-23T03:17:15.022Z,5.13
2019-04-23T03:20:11.182Z,5.67
2019-04-23T03:22:35.624Z,5.20
2019-04-23T03:30:12.191Z,8.13
2019-04-23T03:37:40.738Z,5.90
2019-04-23T03:42:42.598Z,5.50
2019-04-23T03:45:30.250Z,5.27
2019-04-23T03:47:32.536Z,5.53
2019-04-23T03:57:32.753Z,7.20
2019-04-23T04:00:22.873Z,6.17
2019-04-23T04:05:08.289Z,6.00
2019-04-23T04:07:51.258Z,6.90
2019-04-23T04:10:02.225Z,6.17
2019-04-23T04:12:36.052Z,5.77
2019-04-23T04:20:15.297Z,5.80
2019-04-23T04:23:04.264Z,5.87
2019-04-23T04:25:10.060Z,6.47
2019-04-23T04:27:45.828Z,6.40
2019-04-23T04:30:16.382Z,6.60
2019-04-23T04:32:42.927Z,6.00
2019-04-23T04:35:18.722Z,6.90
2019-04-23T04:40:16.056Z,5.73
2019-04-23T04:42:51.734Z,5.77
2019-04-23T04:45:30.460Z,6.27
2019-04-23T04:47:42.215Z,6.27
2019-04-23T04:55:03.254Z,6.80
2019-04-23T04:57:40.195Z,6.20
2019-04-23T05:00:13.233Z,6.10
2019-04-23T05:10:30.070Z,7.63
2019-04-23T05:12:50.407Z,6.60
2019-04-23T05:15:00.780Z,8.20
2019-04-23T05:20:12.892Z,7.90
2019-04-23T05:25:05.517Z,6.60
2019-04-23T05:27:47.213Z,6.90
2019-04-23T05:30:15.631Z,6.70
2019-04-23T05:32:41.487Z,6.30
2019-04-23T05:35:09.882Z,7.57
2019-04-23T05:37:52.965Z,8.00
2019-04-23T05:40:22.440Z,7.47
2019-04-23T05:42:43.119Z,6.80
2019-04-23T05:45:08.289Z,6.43
2019-04-23T05:47:34.694Z,6.70
2019-04-23T05:50:12.704Z,7.00
2019-04-23T06:02:45.999Z,6.90
2019-04-23T06:05:08.845Z,6.40
2019-04-23T06:07:42.635Z,6.47
2019-04-23T06:12:39.643Z,11.33
2019-04-23T06:15:29.105Z,7.77
2019-04-23T06:17:42.655Z,6.87
2019-04-23T06:20:11.407Z,7.00
2019-04-23T06:22:42.389Z,6.50
2019-04-23T06:25:24.937Z,7.13
2019-04-23T06:27:43.151Z,7.30
2019-04-23T06:30:08.755Z,8.10
2019-04-23T06:32:41.277Z,6.50
2019-04-23T06:35:04.877Z,6.87
2019-04-23T06:38:03.199Z,7.77
2019-04-23T06:40:08.744Z,6.67
2019-04-23T06:42:49.311Z,6.53
2019-04-23T06:45:19.257Z,7.07
2019-04-23T06:47:45.939Z,7.00
2019-04-23T06:50:14.807Z,6.57
2019-04-23T06:52:43.780Z,8.40
2019-04-23T06:57:48.143Z,8.30
2019-04-23T07:00:24.102Z,6.50
2019-04-23T07:02:44.524Z,6.00
2019-04-23T07:05:15.837Z,6.47
2019-04-23T07:10:18.406Z,6.10
2019-04-23T07:12:51.764Z,5.10
2019-04-23T07:15:30.607Z,5.70
2019-04-23T07:17:42.761Z,6.87
2019-04-23T07:22:49.884Z,6.60
2019-04-23T07:25:17.566Z,5.57
2019-04-23T07:27:41.004Z,6.00
2019-04-23T07:30:23.747Z,6.53
2019-04-23T07:32:49.854Z,5.27
2019-04-23T07:35:13.719Z,6.63
2019-04-23T07:37:47.545Z,5.13
2019-04-23T07:40:27.098Z,6.37
2019-04-23T07:42:56.692Z,7.83
2019-04-23T07:45:30.972Z,6.20
2019-04-23T07:48:14.964Z,6.63
2019-04-23T07:53:24.621Z,7.37
2019-04-23T08:03:17.302Z,5.97
2019-04-23T08:05:39.564Z,6.60
2019-04-23T08:08:26.911Z,6.93
2019-04-23T08:11:10.722Z,6.83
2019-04-23T08:13:16.165Z,9.10
2019-04-23T08:15:49.837Z,7.30
2019-04-23T08:18:26.283Z,6.83
2019-04-23T08:20:50.894Z,7.10
2019-04-23T08:23:25.688Z,6.17
2019-04-23T08:26:19.400Z,6.40
2019-04-23T08:28:48.387Z,5.57
2019-04-23T08:31:16.468Z,6.73
2019-04-23T08:33:49.717Z,6.30
2019-04-23T08:38:42.613Z,6.53
2019-04-23T08:43:46.646Z,5.93
2019-04-23T08:46:33.409Z,9.90
2019-04-23T08:49:01.320Z,9.00
2019-04-23T08:51:38.953Z,6.53
2019-04-23T08:53:55.773Z,6.73
2019-04-23T08:59:02.496Z,6.53
2019-04-23T09:01:22.612Z,6.40
2019-04-23T09:03:51.494Z,7.80
2019-04-23T09:06:24.252Z,8.03
2019-04-23T09:09:13.206Z,6.80
2019-04-23T09:11:41.717Z,6.80
2019-04-23T09:16:44.632Z,5.87
2019-04-23T09:18:56.311Z,6.30
2019-04-23T09:23:56.183Z,11.27
2019-04-23T09:26:24.594Z,6.83
2019-04-23T09:32:07.349Z,7.23
2019-04-23T09:34:09.646Z,7.47
2019-04-23T09:36:59.667Z,7.67
2019-04-23T09:39:30.738Z,6.20
2019-04-23T09:42:05.730Z,7.50
2019-04-23T09:50:13.994Z,6.40
2019-04-23T09:52:52.796Z,6.10
2019-04-23T09:55:16.263Z,6.70
2019-04-23T09:57:43.116Z,5.87
2019-04-23T10:00:12.618Z,6.50
2019-04-23T10:02:30.922Z,9.20
2019-04-23T10:04:57.441Z,6.03
2019-04-23T10:07:25.162Z,7.10
2019-04-23T10:09:40.714Z,6.33
2019-04-23T10:12:09.510Z,7.10
2019-04-23T10:14:38.683Z,6.97
2019-04-23T10:17:08.427Z,5.97
2019-04-23T10:19:37.023Z,6.53
2019-04-23T10:22:05.269Z,5.90
2019-04-23T10:24:34.981Z,6.03
2019-04-23T10:27:04.259Z,6.50
2019-04-23T10:29:34.315Z,5.40
2019-04-23T10:32:03.857Z,6.80
2019-04-23T10:34:44.099Z,5.63
2019-04-23T10:37:02.208Z,7.33
2019-04-23T10:39:35.781Z,5.50
2019-04-23T10:42:01.838Z,5.30
2019-04-23T10:44:35.366Z,7.27
2019-04-23T10:47:53.994Z,6.03
2019-04-23T10:50:44.468Z,5.90
2019-04-23T10:53:09.991Z,6.27
2019-04-23T10:55:44.765Z,8.10
2019-04-23T10:58:08.397Z,4.70
2019-04-23T11:00:30.984Z,6.80
2019-04-23T11:03:18.617Z,5.27
2019-04-23T11:05:52.300Z,6.00
2019-04-23T11:08:06.962Z,6.70
2019-04-23T11:10:32.955Z,5.73
2019-04-23T11:13:10.581Z,6.73
2019-04-23T11:16:21.573Z,5.73
2019-04-23T11:18:04.086Z,7.03
2019-04-23T11:23:00.815Z,5.63
2019-04-23T11:25:45.848Z,6.20
2019-04-23T11:28:13.621Z,7.33
2019-04-23T11:30:42.885Z,6.00
2019-04-23T11:33:15.183Z,6.93
2019-04-23T11:38:44.531Z,6.30
2019-04-23T11:41:04.349Z,6.20
2019-04-23T11:43:20.811Z,10.97
2019-04-23T11:46:01.230Z,8.33
2019-04-23T11:51:20.826Z,7.40
2019-04-23T11:53:22.855Z,7.63
2019-04-23T11:55:55.800Z,5.53
2019-04-23T11:58:23.653Z,9.00
2019-04-23T12:01:02.143Z,5.07
2019-04-23T12:03:17.518Z,8.30
2019-04-23T12:06:15.601Z,5.90
2019-04-23T12:11:41.060Z,6.90
2019-04-23T12:13:52.569Z,6.43
2019-04-23T12:16:32.096Z,6.33
2019-04-23T12:21:33.498Z,6.60
2019-04-23T12:23:54.519Z,9.10
2019-04-23T12:26:33.322Z,7.33
2019-04-23T12:28:49.913Z,7.87
2019-04-23T12:31:26.448Z,6.23
2019-04-23T12:33:57.548Z,5.80
2019-04-23T12:36:46.910Z,7.90
2019-04-23T12:39:05.389Z,4.80
2019-04-23T12:41:36.112Z,6.27
2019-04-23T12:44:22.389Z,7.80
2019-04-23T12:46:38.374Z,8.20
2019-04-23T12:51:43.356Z,6.17
2019-04-23T12:54:06.994Z,6.80
2019-04-23T12:56:55.861Z,7.63
2019-04-23T12:59:01.693Z,7.40
2019-04-23T13:01:47.122Z,5.57
2019-04-23T13:03:59.674Z,7.40
2019-04-23T13:06:27.038Z,8.20
2019-04-23T13:09:19.739Z,5.50
2019-04-23T13:11:34.885Z,5.77
2019-04-23T13:14:07.202Z,8.90
2019-04-23T13:16:50.010Z,7.97
2019-04-23T13:19:13.764Z,5.87
2019-04-23T13:21:54.553Z,8.07
2019-04-23T13:24:07.612Z,6.77
2019-04-23T13:26:32.396Z,8.20
2019-04-23T13:29:13.521Z,10.07
2019-04-23T13:31:29.377Z,7.37
2019-04-23T13:34:07.137Z,5.63
2019-04-23T13:36:36.233Z,5.80
2019-04-23T13:39:16.842Z,8.37
2019-04-23T13:41:33.265Z,5.80
2019-04-23T13:44:00.125Z,11.60
2019-04-23T13:46:40.948Z,7.43
2019-04-23T13:49:03.102Z,7.23
2019-04-23T13:51:40.393Z,8.30
2019-04-23T13:54:15.646Z,6.57
2019-04-23T13:56:53.833Z,5.87
2019-04-23T13:59:16.329Z,8.67
2019-04-23T14:01:48.783Z,11.30
2019-04-23T14:04:16.411Z,6.87
2019-04-23T14:06:41.715Z,6.63
2019-04-23T14:09:21.703Z,9.80
2019-04-23T14:11:38.657Z,6.67
2019-04-23T14:14:31.650Z,8.37
2019-04-23T14:16:54.323Z,10.07
2019-04-23T14:19:12.215Z,10.33
2019-04-23T14:21:47.777Z,6.70
2019-04-23T14:26:46.333Z,10.17
2019-04-23T14:29:21.534Z,14.93
2019-04-23T14:31:56.311Z,5.90
2019-04-23T14:34:19.051Z,7.00
2019-04-23T14:37:06.201Z,7.43
2019-04-23T14:39:28.662Z,8.07
2019-04-23T14:41:54.158Z,11.67
2019-04-23T14:44:19.027Z,13.20
2019-04-23T14:47:03.503Z,7.63
2019-04-23T14:49:25.743Z,8.87
2019-04-23T14:54:34.377Z,6.33
2019-04-23T14:57:18.023Z,6.20
2019-04-23T14:59:21.513Z,6.23
2019-04-23T15:04:33.604Z,12.73
2019-04-23T15:07:15.678Z,5.57
2019-04-23T15:12:19.281Z,6.57
2019-04-23T15:14:33.096Z,7.63
2019-04-23T15:17:03.236Z,7.93
2019-04-23T15:19:47.654Z,11.10
2019-04-23T15:24:54.643Z,8.60
2019-04-23T15:29:25.944Z,8.20
2019-04-23T15:32:09.935Z,7.03
2019-04-23T15:34:30.561Z,5.80
2019-04-23T15:37:20.426Z,10.00
2019-04-23T15:39:42.653Z,13.10
2019-04-23T15:42:12.694Z,9.70
2019-04-23T15:44:37.611Z,6.67
2019-04-23T15:47:14.497Z,10.17
2019-04-23T15:54:43.697Z,6.63
2019-04-23T15:57:13.698Z,6.43
2019-04-23T16:01:43.656Z,7.43
2019-04-23T16:04:14.207Z,8.20
2019-04-23T16:06:41.580Z,6.50
2019-04-23T16:09:36.030Z,8.67
2019-04-23T16:12:01.516Z,8.47
2019-04-23T16:14:49.712Z,7.43
2019-04-23T16:19:53.211Z,8.57
2019-04-23T16:22:16.580Z,6.63
2019-04-23T16:24:52.975Z,8.57
2019-04-23T16:27:10.974Z,9.27
2019-04-23T16:29:54.172Z,10.77
2019-04-23T16:32:26.381Z,14.70
2019-04-23T16:34:44.926Z,9.60
2019-04-23T16:39:59.333Z,6.30
2019-04-23T16:42:24.832Z,8.60
2019-04-23T16:44:56.074Z,11.70
2019-04-23T16:49:58.363Z,9.37
2019-04-23T16:52:23.167Z,8.83
2019-04-23T16:54:55.059Z,9.53
2019-04-23T17:00:06.789Z,13.37
2019-04-23T17:02:19.636Z,7.80
2019-04-23T17:04:55.095Z,10.23
2019-04-23T17:07:13.188Z,7.70
2019-04-23T17:10:00.286Z,7.30
2019-04-23T17:14:54.540Z,8.43
2019-04-23T17:17:11.714Z,8.37
2019-04-23T17:19:56.963Z,15.10
2019-04-23T17:22:24.621Z,7.17
2019-04-23T17:25:15.301Z,10.40
2019-04-23T17:27:39.090Z,8.23
2019-04-23T17:30:12.003Z,8.23
2019-04-23T17:33:01.758Z,12.67
2019-04-23T17:35:24.442Z,7.63
2019-04-23T17:37:59.805Z,9.33
2019-04-23T17:40:47.502Z,11.13
2019-04-23T17:43:01.720Z,8.80
2019-04-23T17:45:32.376Z,10.70
2019-04-23T17:53:29.692Z,7.73
2019-04-23T17:55:54.884Z,13.73
2019-04-23T17:58:23.373Z,14.00
2019-04-23T18:03:45.559Z,11.47
2019-04-23T18:06:03.227Z,15.83
2019-04-23T18:08:23.255Z,12.03
2019-04-23T18:10:56.450Z,16.27
2019-04-23T18:13:21.068Z,14.90
2019-04-23T18:15:54.510Z,16.27
2019-04-23T18:18:33.554Z,13.20
2019-04-23T18:21:06.025Z,14.13
2019-04-23T18:23:27.629Z,20.63
2019-04-23T18:26:01.884Z,14.83
2019-04-23T18:28:27.698Z,17.50
2019-04-23T18:36:08.230Z,12.60
2019-04-23T18:38:45.939Z,15.67
2019-04-23T18:41:27.200Z,12.70
2019-04-23T18:43:50.991Z,14.10
2019-04-23T18:46:22.961Z,15.60
2019-04-23T18:51:07.855Z,19.33
2019-04-23T18:53:52.720Z,10.40
2019-04-23T18:59:04.498Z,11.33
2019-04-23T19:01:19.817Z,13.33
2019-04-23T19:12:26.421Z,8.83
2019-04-23T19:14:40.842Z,17.27
2019-04-23T19:19:46.435Z,16.53
2019-04-23T19:27:19.028Z,18.27
2019-04-23T19:29:46.321Z,11.50
2019-04-23T19:32:20.863Z,14.50
2019-04-23T19:37:23.233Z,13.50
2019-04-23T19:39:39.420Z,11.70
2019-04-23T19:42:20.406Z,13.27
2019-04-23T19:47:09.627Z,16.13
2019-04-23T19:52:03.470Z,17.50
2019-04-23T19:57:15.186Z,13.97
2019-04-23T20:04:41.042Z,14.10
2019-04-23T20:09:50.477Z,15.03
2019-04-23T20:12:07.762Z,12.33
2019-04-23T20:19:46.482Z,14.93
2019-04-23T20:30:04.842Z,12.03
2019-04-23T20:31:33.487Z,12.37
2019-04-23T20:32:53.687Z,11.47
2019-04-23T20:34:53.004Z,8.27
2019-04-23T20:37:30.849Z,11.43
2019-04-23T20:39:50.425Z,9.23
2019-04-23T20:42:16.536Z,8.37
2019-04-23T20:44:53.425Z,10.57
2019-04-23T20:47:15.567Z,10.73
2019-04-23T20:49:47.779Z,11.57
2019-04-23T20:52:32.034Z,10.03
2019-04-23T20:57:43.956Z,8.30
2019-04-23T21:00:24.309Z,9.13
2019-04-23T21:05:21.784Z,10.40
2019-04-23T21:15:36.126Z,9.90
2019-04-23T21:20:30.112Z,11.77
2019-04-23T21:23:01.172Z,11.97
2019-04-23T21:25:22.372Z,9.67
2019-04-23T21:28:04.742Z,12.33
2019-04-23T21:30:30.988Z,8.53
2019-04-23T21:32:56.324Z,8.13
2019-04-23T21:35:27.819Z,7.33
2019-04-23T21:43:09.316Z,8.90
2019-04-23T21:45:42.023Z,7.37
2019-04-23T21:48:15.729Z,8.47
2019-04-23T21:50:52.840Z,6.90
2019-04-23T21:53:06.218Z,7.70
2019-04-23T21:55:47.119Z,7.80
2019-04-23T21:58:19.675Z,10.20
2019-04-23T22:00:57.006Z,6.43
2019-04-23T22:03:20.585Z,7.17
2019-04-23T22:08:06.909Z,7.20
2019-04-23T22:11:00.622Z,7.30
2019-04-23T22:15:54.744Z,6.47
2019-04-23T22:18:09.434Z,6.53
2019-04-23T22:20:53.370Z,7.30
2019-04-23T22:23:11.079Z,8.27
2019-04-23T22:25:48.636Z,6.77
2019-04-23T22:28:21.888Z,6.20
2019-04-23T22:31:04.227Z,7.37
2019-04-23T22:33:17.773Z,8.17
2019-04-23T22:35:57.384Z,6.93
2019-04-23T22:38:21.137Z,6.57
2019-04-23T22:40:53.360Z,10.30
2019-04-23T22:45:59.913Z,6.43
2019-04-23T22:48:29.606Z,19.67
2019-04-23T22:53:13.780Z,7.37
2019-04-23T22:58:27.617Z,6.73
2019-04-23T23:01:10.660Z,6.80
2019-04-23T23:03:33.259Z,7.63
2019-04-23T23:08:30.889Z,8.50
2019-04-23T23:13:48.139Z,6.77
2019-04-23T23:18:53.762Z,7.37
2019-04-23T23:21:05.358Z,6.80
2019-04-23T23:23:36.541Z,7.27
2019-04-23T23:28:38.543Z,6.23
2019-04-23T23:31:07.031Z,7.53
2019-04-23T23:36:06.956Z,7.23
2019-04-23T23:41:12.889Z,7.50
2019-04-23T23:43:59.620Z,6.90
2019-04-23T23:48:36.016Z,10.80
2019-04-23T23:58:41.334Z,7.33
